sensor_id;sensor_type;location;lat;lon;timestamp;temperature;humidity
33811;DHT22;20119;48.334;16.206;2023-03-13T00:01:30;7.70;99.90
33811;DHT22;20119;48.334;16.206;2023-03-13T00:04:05;7.70;99.90
33811;DHT22;20119;48.334;16.206;2023-03-13T00:06:35;7.70;99.90
33811;DHT22;20119;48.334;16.206;2023-03-13T00:09:04;7.80;99.90
33811;DHT22;20119;48.334;16.206;2023-03-13T00:11:32;7.80;99.90
33811;DHT22;20119;48.334;16.206;2023-03-13T00:14:01;7.80;99.90
33811;DHT22;20119;48.334;16.206;2023-03-13T00:16:31;7.90;99.90
33811;DHT22;20119;48.334;16.206;2023-03-13T00:18:58;8.00;99.90
33811;DHT22;20119;48.334;16.206;2023-03-13T00:21:27;8.10;99.90
33811;DHT22;20119;48.334;16.206;2023-03-13T00:23:56;8.10;99.90
33811;DHT22;20119;48.334;16.206;2023-03-13T00:26:26;8.20;99.90
33811;DHT22;20119;48.334;16.206;2023-03-13T00:28:53;8.20;99.90
33811;DHT22;20119;48.334;16.206;2023-03-13T00:31:22;8.30;99.90
33811;DHT22;20119;48.334;16.206;2023-03-13T00:33:53;8.30;99.90
33811;DHT22;20119;48.334;16.206;2023-03-13T00:36:22;8.30;99.90
33811;DHT22;20119;48.334;16.206;2023-03-13T00:38:50;8.40;99.90
33811;DHT22;20119;48.334;16.206;2023-03-13T00:41:21;8.40;99.90
33811;DHT22;20119;48.334;16.206;2023-03-13T00:43:50;8.40;99.90
33811;DHT22;20119;48.334;16.206;2023-03-13T00:46:19;8.30;99.90
33811;DHT22;20119;48.334;16.206;2023-03-13T00:48:48;8.30;99.90
33811;DHT22;20119;48.334;16.206;2023-03-13T00:51:19;8.20;99.90
33811;DHT22;20119;48.334;16.206;2023-03-13T00:53:49;8.20;99.90
33811;DHT22;20119;48.334;16.206;2023-03-13T00:56:19;8.10;99.90
33811;DHT22;20119;48.334;16.206;2023-03-13T00:58:48;8.10;99.90
33811;DHT22;20119;48.334;16.206;2023-03-13T01:01:19;8.10;99.90
33811;DHT22;20119;48.334;16.206;2023-03-13T01:03:49;8.10;99.90
33811;DHT22;20119;48.334;16.206;2023-03-13T01:06:20;8.00;99.90
33811;DHT22;20119;48.334;16.206;2023-03-13T01:08:51;8.00;99.90
33811;DHT22;20119;48.334;16.206;2023-03-13T01:11:20;7.90;99.90
33811;DHT22;20119;48.334;16.206;2023-03-13T01:13:52;7.80;99.90
33811;DHT22;20119;48.334;16.206;2023-03-13T01:16:20;7.80;99.90
33811;DHT22;20119;48.334;16.206;2023-03-13T01:18:51;7.80;99.90
33811;DHT22;20119;48.334;16.206;2023-03-13T01:21:23;7.70;99.90
33811;DHT22;20119;48.334;16.206;2023-03-13T01:23:52;7.70;99.90
33811;DHT22;20119;48.334;16.206;2023-03-13T01:26:24;7.60;99.90
33811;DHT22;20119;48.334;16.206;2023-03-13T01:28:53;7.60;99.90
33811;DHT22;20119;48.334;16.206;2023-03-13T01:31:21;7.60;99.90
33811;DHT22;20119;48.334;16.206;2023-03-13T01:33:54;7.50;99.90
33811;DHT22;20119;48.334;16.206;2023-03-13T01:36:24;7.40;99.90
33811;DHT22;20119;48.334;16.206;2023-03-13T01:38:54;7.40;99.90
33811;DHT22;20119;48.334;16.206;2023-03-13T01:41:22;7.30;99.90
33811;DHT22;20119;48.334;16.206;2023-03-13T01:43:50;7.30;99.90
33811;DHT22;20119;48.334;16.206;2023-03-13T01:46:20;7.30;99.90
33811;DHT22;20119;48.334;16.206;2023-03-13T01:48:51;7.40;99.90
33811;DHT22;20119;48.334;16.206;2023-03-13T01:51:25;7.30;99.90
33811;DHT22;20119;48.334;16.206;2023-03-13T01:54:13;7.30;99.90
33811;DHT22;20119;48.334;16.206;2023-03-13T01:56:46;7.30;99.90
33811;DHT22;20119;48.334;16.206;2023-03-13T01:59:17;7.20;99.90
33811;DHT22;20119;48.334;16.206;2023-03-13T02:01:47;7.00;99.90
33811;DHT22;20119;48.334;16.206;2023-03-13T02:04:18;7.00;99.90
33811;DHT22;20119;48.334;16.206;2023-03-13T02:06:51;6.90;99.90
33811;DHT22;20119;48.334;16.206;2023-03-13T02:09:22;6.80;99.90
33811;DHT22;20119;48.334;16.206;2023-03-13T02:11:55;6.70;99.90
33811;DHT22;20119;48.334;16.206;2023-03-13T02:14:27;6.70;99.90
33811;DHT22;20119;48.334;16.206;2023-03-13T02:16:56;6.70;99.90
33811;DHT22;20119;48.334;16.206;2023-03-13T02:19:32;6.60;99.90
33811;DHT22;20119;48.334;16.206;2023-03-13T02:22:13;6.50;99.90
33811;DHT22;20119;48.334;16.206;2023-03-13T02:24:48;6.50;99.90
33811;DHT22;20119;48.334;16.206;2023-03-13T02:27:19;6.50;99.90
33811;DHT22;20119;48.334;16.206;2023-03-13T02:29:48;6.60;99.90
33811;DHT22;20119;48.334;16.206;2023-03-13T02:32:15;6.60;99.90
33811;DHT22;20119;48.334;16.206;2023-03-13T02:34:47;6.60;99.90
33811;DHT22;20119;48.334;16.206;2023-03-13T02:37:17;6.50;99.90
33811;DHT22;20119;48.334;16.206;2023-03-13T02:39:47;6.60;99.90
33811;DHT22;20119;48.334;16.206;2023-03-13T02:42:20;6.50;99.90
33811;DHT22;20119;48.334;16.206;2023-03-13T02:44:48;6.60;99.90
33811;DHT22;20119;48.334;16.206;2023-03-13T02:47:18;6.60;99.90
33811;DHT22;20119;48.334;16.206;2023-03-13T02:49:47;6.70;99.90
33811;DHT22;20119;48.334;16.206;2023-03-13T02:52:20;6.70;99.90
33811;DHT22;20119;48.334;16.206;2023-03-13T02:54:51;6.70;99.90
33811;DHT22;20119;48.334;16.206;2023-03-13T02:57:24;6.60;99.90
33811;DHT22;20119;48.334;16.206;2023-03-13T02:59:51;6.60;99.90
33811;DHT22;20119;48.334;16.206;2023-03-13T03:02:19;6.60;99.90
33811;DHT22;20119;48.334;16.206;2023-03-13T03:04:47;6.50;99.90
33811;DHT22;20119;48.334;16.206;2023-03-13T03:07:15;6.50;99.90
33811;DHT22;20119;48.334;16.206;2023-03-13T03:09:44;6.50;99.90
33811;DHT22;20119;48.334;16.206;2023-03-13T03:12:14;6.50;99.90
33811;DHT22;20119;48.334;16.206;2023-03-13T03:14:43;6.50;99.90
33811;DHT22;20119;48.334;16.206;2023-03-13T03:17:11;6.60;99.90
33811;DHT22;20119;48.334;16.206;2023-03-13T03:19:38;6.70;99.90
33811;DHT22;20119;48.334;16.206;2023-03-13T03:22:06;6.70;99.90
33811;DHT22;20119;48.334;16.206;2023-03-13T03:24:34;6.80;99.90
33811;DHT22;20119;48.334;16.206;2023-03-13T03:27:01;6.80;99.90
33811;DHT22;20119;48.334;16.206;2023-03-13T03:29:29;6.80;99.90
33811;DHT22;20119;48.334;16.206;2023-03-13T03:31:58;6.80;99.90
33811;DHT22;20119;48.334;16.206;2023-03-13T03:34:27;6.70;99.90
33811;DHT22;20119;48.334;16.206;2023-03-13T03:36:55;6.70;99.90
33811;DHT22;20119;48.334;16.206;2023-03-13T03:39:23;6.70;99.90
33811;DHT22;20119;48.334;16.206;2023-03-13T03:41:50;6.60;99.90
33811;DHT22;20119;48.334;16.206;2023-03-13T03:44:17;6.60;99.90
33811;DHT22;20119;48.334;16.206;2023-03-13T03:46:44;6.60;99.90
33811;DHT22;20119;48.334;16.206;2023-03-13T03:49:13;6.50;99.90
33811;DHT22;20119;48.334;16.206;2023-03-13T03:51:40;6.50;99.90
33811;DHT22;20119;48.334;16.206;2023-03-13T03:54:08;6.60;99.90
33811;DHT22;20119;48.334;16.206;2023-03-13T03:56:35;6.60;99.90
33811;DHT22;20119;48.334;16.206;2023-03-13T03:59:02;6.70;99.90
33811;DHT22;20119;48.334;16.206;2023-03-13T04:01:29;6.80;99.90
33811;DHT22;20119;48.334;16.206;2023-03-13T04:03:57;6.80;99.90
33811;DHT22;20119;48.334;16.206;2023-03-13T04:06:26;6.70;99.90
33811;DHT22;20119;48.334;16.206;2023-03-13T04:08:53;6.70;99.90
33811;DHT22;20119;48.334;16.206;2023-03-13T04:11:20;6.70;99.90
33811;DHT22;20119;48.334;16.206;2023-03-13T04:13:47;6.60;99.90
33811;DHT22;20119;48.334;16.206;2023-03-13T04:16:14;6.50;99.90
33811;DHT22;20119;48.334;16.206;2023-03-13T04:18:41;6.60;99.90
33811;DHT22;20119;48.334;16.206;2023-03-13T04:21:09;6.70;99.90
33811;DHT22;20119;48.334;16.206;2023-03-13T04:23:38;6.70;99.90
33811;DHT22;20119;48.334;16.206;2023-03-13T04:26:06;6.60;99.90
33811;DHT22;20119;48.334;16.206;2023-03-13T04:28:33;6.60;99.90
33811;DHT22;20119;48.334;16.206;2023-03-13T04:31:01;6.50;99.90
33811;DHT22;20119;48.334;16.206;2023-03-13T04:33:29;6.50;99.90
33811;DHT22;20119;48.334;16.206;2023-03-13T04:35:56;6.40;99.90
33811;DHT22;20119;48.334;16.206;2023-03-13T04:38:25;6.50;99.90
33811;DHT22;20119;48.334;16.206;2023-03-13T04:40:53;6.60;99.90
33811;DHT22;20119;48.334;16.206;2023-03-13T04:43:20;6.60;99.90
33811;DHT22;20119;48.334;16.206;2023-03-13T04:45:51;6.70;99.90
33811;DHT22;20119;48.334;16.206;2023-03-13T04:48:20;6.60;99.90
33811;DHT22;20119;48.334;16.206;2023-03-13T04:50:48;6.50;99.90
33811;DHT22;20119;48.334;16.206;2023-03-13T04:53:19;6.50;99.90
33811;DHT22;20119;48.334;16.206;2023-03-13T04:55:47;6.40;99.90
33811;DHT22;20119;48.334;16.206;2023-03-13T04:58:16;6.40;99.90
33811;DHT22;20119;48.334;16.206;2023-03-13T05:00:44;6.30;99.90
33811;DHT22;20119;48.334;16.206;2023-03-13T05:03:12;6.30;99.90
33811;DHT22;20119;48.334;16.206;2023-03-13T05:05:39;6.20;99.90
33811;DHT22;20119;48.334;16.206;2023-03-13T05:08:07;6.20;99.90
33811;DHT22;20119;48.334;16.206;2023-03-13T05:10:36;6.10;99.90
33811;DHT22;20119;48.334;16.206;2023-03-13T05:13:04;5.90;99.90
33811;DHT22;20119;48.334;16.206;2023-03-13T05:15:33;5.80;99.90
33811;DHT22;20119;48.334;16.206;2023-03-13T05:18:01;5.80;99.90
33811;DHT22;20119;48.334;16.206;2023-03-13T05:20:30;5.80;99.90
33811;DHT22;20119;48.334;16.206;2023-03-13T05:23:00;5.80;99.90
33811;DHT22;20119;48.334;16.206;2023-03-13T05:25:28;5.80;99.90
33811;DHT22;20119;48.334;16.206;2023-03-13T05:27:55;5.70;99.90
33811;DHT22;20119;48.334;16.206;2023-03-13T05:30:23;5.70;99.90
33811;DHT22;20119;48.334;16.206;2023-03-13T05:32:53;5.60;99.90
33811;DHT22;20119;48.334;16.206;2023-03-13T05:35:21;5.70;99.90
33811;DHT22;20119;48.334;16.206;2023-03-13T05:37:49;5.60;99.90
33811;DHT22;20119;48.334;16.206;2023-03-13T05:40:17;5.60;99.90
33811;DHT22;20119;48.334;16.206;2023-03-13T05:42:45;5.70;99.90
33811;DHT22;20119;48.334;16.206;2023-03-13T05:45:12;5.70;99.90
33811;DHT22;20119;48.334;16.206;2023-03-13T05:47:41;5.80;99.90
33811;DHT22;20119;48.334;16.206;2023-03-13T05:50:11;6.00;99.90
33811;DHT22;20119;48.334;16.206;2023-03-13T05:52:38;6.20;99.90
33811;DHT22;20119;48.334;16.206;2023-03-13T05:55:07;6.40;99.90
33811;DHT22;20119;48.334;16.206;2023-03-13T05:57:34;6.60;99.90
33811;DHT22;20119;48.334;16.206;2023-03-13T06:00:02;6.50;99.90
33811;DHT22;20119;48.334;16.206;2023-03-13T06:02:30;6.60;99.90
33811;DHT22;20119;48.334;16.206;2023-03-13T06:04:59;6.70;99.90
33811;DHT22;20119;48.334;16.206;2023-03-13T06:07:31;6.80;99.90
33811;DHT22;20119;48.334;16.206;2023-03-13T06:09:58;6.60;99.90
33811;DHT22;20119;48.334;16.206;2023-03-13T06:12:26;6.80;99.90
33811;DHT22;20119;48.334;16.206;2023-03-13T06:14:53;7.30;99.90
33811;DHT22;20119;48.334;16.206;2023-03-13T06:17:26;7.40;99.90
33811;DHT22;20119;48.334;16.206;2023-03-13T06:19:53;7.80;99.90
33811;DHT22;20119;48.334;16.206;2023-03-13T06:22:22;7.90;99.90
33811;DHT22;20119;48.334;16.206;2023-03-13T06:24:52;8.50;99.90
33811;DHT22;20119;48.334;16.206;2023-03-13T06:27:22;9.10;99.90
33811;DHT22;20119;48.334;16.206;2023-03-13T06:29:50;9.60;99.90
33811;DHT22;20119;48.334;16.206;2023-03-13T06:32:18;10.00;99.90
33811;DHT22;20119;48.334;16.206;2023-03-13T06:34:45;10.30;99.90
33811;DHT22;20119;48.334;16.206;2023-03-13T06:37:13;10.80;99.90
33811;DHT22;20119;48.334;16.206;2023-03-13T06:39:41;11.20;99.90
33811;DHT22;20119;48.334;16.206;2023-03-13T06:42:11;11.10;99.90
33811;DHT22;20119;48.334;16.206;2023-03-13T06:44:38;10.50;99.90
33811;DHT22;20119;48.334;16.206;2023-03-13T06:47:06;10.70;99.90
33811;DHT22;20119;48.334;16.206;2023-03-13T06:49:35;10.80;99.90
33811;DHT22;20119;48.334;16.206;2023-03-13T06:52:02;11.10;99.90
33811;DHT22;20119;48.334;16.206;2023-03-13T06:54:30;11.50;99.90
33811;DHT22;20119;48.334;16.206;2023-03-13T06:56:57;12.00;99.90
33811;DHT22;20119;48.334;16.206;2023-03-13T06:59:29;11.80;99.90
33811;DHT22;20119;48.334;16.206;2023-03-13T07:01:57;12.10;99.90
33811;DHT22;20119;48.334;16.206;2023-03-13T07:04:25;12.80;99.90
33811;DHT22;20119;48.334;16.206;2023-03-13T07:06:52;13.10;99.90
33811;DHT22;20119;48.334;16.206;2023-03-13T07:09:20;13.60;99.90
33811;DHT22;20119;48.334;16.206;2023-03-13T07:11:49;14.20;99.90
33811;DHT22;20119;48.334;16.206;2023-03-13T07:14:16;13.80;99.90
33811;DHT22;20119;48.334;16.206;2023-03-13T07:16:46;12.80;99.90
33811;DHT22;20119;48.334;16.206;2023-03-13T07:19:13;12.00;99.90
33811;DHT22;20119;48.334;16.206;2023-03-13T07:21:42;11.90;99.90
33811;DHT22;20119;48.334;16.206;2023-03-13T07:24:11;11.50;99.90
33811;DHT22;20119;48.334;16.206;2023-03-13T07:26:38;11.90;99.90
33811;DHT22;20119;48.334;16.206;2023-03-13T07:29:06;12.70;99.90
33811;DHT22;20119;48.334;16.206;2023-03-13T07:31:34;13.50;99.90
33811;DHT22;20119;48.334;16.206;2023-03-13T07:34:04;14.10;99.90
33811;DHT22;20119;48.334;16.206;2023-03-13T07:36:31;14.30;99.90
33811;DHT22;20119;48.334;16.206;2023-03-13T07:39:01;14.30;99.90
33811;DHT22;20119;48.334;16.206;2023-03-13T07:41:28;14.10;99.90
33811;DHT22;20119;48.334;16.206;2023-03-13T07:43:56;13.30;99.90
33811;DHT22;20119;48.334;16.206;2023-03-13T07:46:25;13.40;99.90
33811;DHT22;20119;48.334;16.206;2023-03-13T07:48:55;13.60;99.90
33811;DHT22;20119;48.334;16.206;2023-03-13T07:51:25;13.20;99.90
33811;DHT22;20119;48.334;16.206;2023-03-13T07:53:53;13.30;99.90
33811;DHT22;20119;48.334;16.206;2023-03-13T07:56:22;13.00;99.90
33811;DHT22;20119;48.334;16.206;2023-03-13T07:58:51;12.90;99.90
33811;DHT22;20119;48.334;16.206;2023-03-13T08:01:21;13.50;99.90
33811;DHT22;20119;48.334;16.206;2023-03-13T08:03:48;13.50;99.90
33811;DHT22;20119;48.334;16.206;2023-03-13T08:06:20;13.60;99.90
33811;DHT22;20119;48.334;16.206;2023-03-13T08:08:50;13.70;99.90
33811;DHT22;20119;48.334;16.206;2023-03-13T08:11:20;13.40;99.90
33811;DHT22;20119;48.334;16.206;2023-03-13T08:13:50;13.80;99.90
33811;DHT22;20119;48.334;16.206;2023-03-13T08:16:19;13.50;99.90
33811;DHT22;20119;48.334;16.206;2023-03-13T08:18:49;13.20;99.90
33811;DHT22;20119;48.334;16.206;2023-03-13T08:21:19;13.30;99.90
33811;DHT22;20119;48.334;16.206;2023-03-13T08:23:51;13.60;99.90
33811;DHT22;20119;48.334;16.206;2023-03-13T08:26:20;13.40;99.90
33811;DHT22;20119;48.334;16.206;2023-03-13T08:28:52;13.20;99.90
33811;DHT22;20119;48.334;16.206;2023-03-13T08:31:22;13.10;99.90
33811;DHT22;20119;48.334;16.206;2023-03-13T08:33:50;13.00;99.90
33811;DHT22;20119;48.334;16.206;2023-03-13T08:36:23;14.20;99.90
33811;DHT22;20119;48.334;16.206;2023-03-13T08:38:53;15.10;99.90
33811;DHT22;20119;48.334;16.206;2023-03-13T08:41:23;15.80;99.90
33811;DHT22;20119;48.334;16.206;2023-03-13T08:43:51;16.60;99.90
33811;DHT22;20119;48.334;16.206;2023-03-13T08:46:19;17.50;99.90
33811;DHT22;20119;48.334;16.206;2023-03-13T08:48:48;18.10;99.90
33811;DHT22;20119;48.334;16.206;2023-03-13T08:51:19;18.30;99.90
33811;DHT22;20119;48.334;16.206;2023-03-13T08:53:47;18.40;99.90
33811;DHT22;20119;48.334;16.206;2023-03-13T08:56:19;19.20;99.90
33811;DHT22;20119;48.334;16.206;2023-03-13T08:58:50;18.90;99.90
33811;DHT22;20119;48.334;16.206;2023-03-13T09:01:18;17.60;99.90
33811;DHT22;20119;48.334;16.206;2023-03-13T09:03:54;16.50;99.90
33811;DHT22;20119;48.334;16.206;2023-03-13T09:06:24;16.60;99.90
33811;DHT22;20119;48.334;16.206;2023-03-13T09:08:55;17.10;99.90
33811;DHT22;20119;48.334;16.206;2023-03-13T09:11:25;17.80;99.90
33811;DHT22;20119;48.334;16.206;2023-03-13T09:13:55;18.10;99.90
33811;DHT22;20119;48.334;16.206;2023-03-13T09:16:28;17.80;99.90
33811;DHT22;20119;48.334;16.206;2023-03-13T09:18:57;18.10;99.90
33811;DHT22;20119;48.334;16.206;2023-03-13T09:21:26;18.60;99.90
33811;DHT22;20119;48.334;16.206;2023-03-13T09:23:55;19.00;99.90
33811;DHT22;20119;48.334;16.206;2023-03-13T09:26:23;18.90;99.90
33811;DHT22;20119;48.334;16.206;2023-03-13T09:28:55;19.10;99.90
33811;DHT22;20119;48.334;16.206;2023-03-13T09:31:24;19.00;99.90
33811;DHT22;20119;48.334;16.206;2023-03-13T09:33:53;18.70;99.90
33811;DHT22;20119;48.334;16.206;2023-03-13T09:36:22;18.80;99.90
33811;DHT22;20119;48.334;16.206;2023-03-13T09:38:54;18.40;99.90
33811;DHT22;20119;48.334;16.206;2023-03-13T09:41:28;18.50;99.90
33811;DHT22;20119;48.334;16.206;2023-03-13T09:44:08;18.70;99.90
33811;DHT22;20119;48.334;16.206;2023-03-13T09:46:42;18.30;99.90
33811;DHT22;20119;48.334;16.206;2023-03-13T09:49:24;18.20;99.90
33811;DHT22;20119;48.334;16.206;2023-03-13T09:52:01;17.90;99.90
33811;DHT22;20119;48.334;16.206;2023-03-13T09:54:35;18.00;99.90
33811;DHT22;20119;48.334;16.206;2023-03-13T09:57:10;18.30;99.90
33811;DHT22;20119;48.334;16.206;2023-03-13T09:59:45;18.60;99.90
33811;DHT22;20119;48.334;16.206;2023-03-13T10:02:28;18.70;99.90
33811;DHT22;20119;48.334;16.206;2023-03-13T10:05:01;18.70;99.90
33811;DHT22;20119;48.334;16.206;2023-03-13T10:07:30;18.80;99.90
33811;DHT22;20119;48.334;16.206;2023-03-13T10:09:59;19.00;99.90
33811;DHT22;20119;48.334;16.206;2023-03-13T10:12:28;18.70;99.90
33811;DHT22;20119;48.334;16.206;2023-03-13T10:15:20;18.70;99.90
33811;DHT22;20119;48.334;16.206;2023-03-13T10:17:51;18.20;99.90
33811;DHT22;20119;48.334;16.206;2023-03-13T10:20:24;17.50;99.90
33811;DHT22;20119;48.334;16.206;2023-03-13T10:22:56;17.30;99.90
33811;DHT22;20119;48.334;16.206;2023-03-13T10:25:29;17.60;99.90
33811;DHT22;20119;48.334;16.206;2023-03-13T10:27:58;17.60;99.90
33811;DHT22;20119;48.334;16.206;2023-03-13T10:30:29;17.80;99.90
33811;DHT22;20119;48.334;16.206;2023-03-13T10:33:16;18.00;99.60
33811;DHT22;20119;48.334;16.206;2023-03-13T10:35:45;18.20;99.90
33811;DHT22;20119;48.334;16.206;2023-03-13T10:38:14;18.50;99.90
33811;DHT22;20119;48.334;16.206;2023-03-13T10:40:55;18.70;99.90
33811;DHT22;20119;48.334;16.206;2023-03-13T10:43:24;17.70;99.90
33811;DHT22;20119;48.334;16.206;2023-03-13T10:45:55;17.90;99.90
33811;DHT22;20119;48.334;16.206;2023-03-13T10:48:24;18.00;99.90
33811;DHT22;20119;48.334;16.206;2023-03-13T10:50:53;17.80;99.90
33811;DHT22;20119;48.334;16.206;2023-03-13T10:53:30;17.60;99.90
33811;DHT22;20119;48.334;16.206;2023-03-13T10:56:04;17.80;99.90
33811;DHT22;20119;48.334;16.206;2023-03-13T10:58:39;18.10;99.90
33811;DHT22;20119;48.334;16.206;2023-03-13T11:01:21;17.90;99.90
33811;DHT22;20119;48.334;16.206;2023-03-13T11:03:50;17.70;99.90
33811;DHT22;20119;48.334;16.206;2023-03-13T11:06:25;17.20;99.90
33811;DHT22;20119;48.334;16.206;2023-03-13T11:09:03;17.30;99.90
33811;DHT22;20119;48.334;16.206;2023-03-13T11:11:44;17.10;99.90
33811;DHT22;20119;48.334;16.206;2023-03-13T11:14:14;16.50;99.90
33811;DHT22;20119;48.334;16.206;2023-03-13T11:16:46;16.60;99.90
33811;DHT22;20119;48.334;16.206;2023-03-13T11:19:41;16.90;99.90
33811;DHT22;20119;48.334;16.206;2023-03-13T11:22:27;17.20;99.90
33811;DHT22;20119;48.334;16.206;2023-03-13T11:25:07;16.90;99.90
33811;DHT22;20119;48.334;16.206;2023-03-13T11:27:43;17.30;99.90
33811;DHT22;20119;48.334;16.206;2023-03-13T11:30:21;17.50;99.90
33811;DHT22;20119;48.334;16.206;2023-03-13T11:32:54;17.50;99.90
33811;DHT22;20119;48.334;16.206;2023-03-13T11:35:34;17.60;99.90
33811;DHT22;20119;48.334;16.206;2023-03-13T11:38:06;17.70;99.90
33811;DHT22;20119;48.334;16.206;2023-03-13T11:40:38;17.60;99.80
33811;DHT22;20119;48.334;16.206;2023-03-13T11:43:19;17.40;99.90
33811;DHT22;20119;48.334;16.206;2023-03-13T11:46:10;17.40;99.40
33811;DHT22;20119;48.334;16.206;2023-03-13T11:49:05;16.80;99.90
33811;DHT22;20119;48.334;16.206;2023-03-13T11:51:42;17.00;99.90
33811;DHT22;20119;48.334;16.206;2023-03-13T11:54:38;16.60;99.90
33811;DHT22;20119;48.334;16.206;2023-03-13T11:57:13;16.50;99.90
33811;DHT22;20119;48.334;16.206;2023-03-13T11:59:47;16.50;99.80
33811;DHT22;20119;48.334;16.206;2023-03-13T12:02:21;16.40;99.90
33811;DHT22;20119;48.334;16.206;2023-03-13T12:04:55;16.20;99.90
33811;DHT22;20119;48.334;16.206;2023-03-13T12:07:27;16.10;99.90
33811;DHT22;20119;48.334;16.206;2023-03-13T12:09:59;16.30;99.90
33811;DHT22;20119;48.334;16.206;2023-03-13T12:12:37;16.10;99.90
33811;DHT22;20119;48.334;16.206;2023-03-13T12:15:16;15.80;99.90
33811;DHT22;20119;48.334;16.206;2023-03-13T12:17:49;15.70;99.90
33811;DHT22;20119;48.334;16.206;2023-03-13T12:20:22;15.80;99.90
33811;DHT22;20119;48.334;16.206;2023-03-13T12:22:55;15.70;99.90
33811;DHT22;20119;48.334;16.206;2023-03-13T12:25:31;15.60;99.90
33811;DHT22;20119;48.334;16.206;2023-03-13T12:28:06;15.70;99.90
33811;DHT22;20119;48.334;16.206;2023-03-13T12:30:41;15.70;99.90
33811;DHT22;20119;48.334;16.206;2023-03-13T12:33:16;15.60;99.90
33811;DHT22;20119;48.334;16.206;2023-03-13T12:35:52;15.30;99.90
33811;DHT22;20119;48.334;16.206;2023-03-13T12:38:27;15.20;99.90
33811;DHT22;20119;48.334;16.206;2023-03-13T12:41:03;15.30;99.90
33811;DHT22;20119;48.334;16.206;2023-03-13T12:43:37;15.20;99.90
33811;DHT22;20119;48.334;16.206;2023-03-13T12:46:18;15.10;99.90
33811;DHT22;20119;48.334;16.206;2023-03-13T12:49:00;14.90;99.90
33811;DHT22;20119;48.334;16.206;2023-03-13T12:51:46;15.00;99.90
33811;DHT22;20119;48.334;16.206;2023-03-13T12:54:39;15.00;99.90
33811;DHT22;20119;48.334;16.206;2023-03-13T12:57:21;15.00;99.90
33811;DHT22;20119;48.334;16.206;2023-03-13T12:59:53;14.90;99.90
33811;DHT22;20119;48.334;16.206;2023-03-13T13:02:26;14.90;99.90
33811;DHT22;20119;48.334;16.206;2023-03-13T13:04:56;14.90;99.90
33811;DHT22;20119;48.334;16.206;2023-03-13T13:07:28;14.90;99.90
33811;DHT22;20119;48.334;16.206;2023-03-13T13:10:04;14.90;99.90
33811;DHT22;20119;48.334;16.206;2023-03-13T13:12:43;14.90;99.90
33811;DHT22;20119;48.334;16.206;2023-03-13T13:15:17;15.00;99.90
33811;DHT22;20119;48.334;16.206;2023-03-13T13:18:13;15.10;99.90
33811;DHT22;20119;48.334;16.206;2023-03-13T13:20:47;15.10;99.90
33811;DHT22;20119;48.334;16.206;2023-03-13T13:23:24;15.10;99.90
33811;DHT22;20119;48.334;16.206;2023-03-13T13:32:45;15.20;99.90
33811;DHT22;20119;48.334;16.206;2023-03-13T13:35:30;15.20;99.90
33811;DHT22;20119;48.334;16.206;2023-03-13T13:38:25;15.20;99.90
33811;DHT22;20119;48.334;16.206;2023-03-13T13:40:58;15.40;99.90
33811;DHT22;20119;48.334;16.206;2023-03-13T13:43:30;15.50;99.90
33811;DHT22;20119;48.334;16.206;2023-03-13T13:46:02;15.70;99.90
33811;DHT22;20119;48.334;16.206;2023-03-13T13:48:34;15.90;99.80
33811;DHT22;20119;48.334;16.206;2023-03-13T13:51:23;16.00;99.50
33811;DHT22;20119;48.334;16.206;2023-03-13T13:53:57;16.00;99.80
33811;DHT22;20119;48.334;16.206;2023-03-13T13:56:40;16.20;99.50
33811;DHT22;20119;48.334;16.206;2023-03-13T13:59:30;16.20;99.40
33811;DHT22;20119;48.334;16.206;2023-03-13T14:02:22;16.00;99.40
33811;DHT22;20119;48.334;16.206;2023-03-13T14:04:58;15.90;99.70
33811;DHT22;20119;48.334;16.206;2023-03-13T14:07:30;16.10;99.30
33811;DHT22;20119;48.334;16.206;2023-03-13T14:10:06;16.10;98.80
33811;DHT22;20119;48.334;16.206;2023-03-13T14:12:38;16.10;99.20
33811;DHT22;20119;48.334;16.206;2023-03-13T14:15:10;15.80;99.90
33811;DHT22;20119;48.334;16.206;2023-03-13T14:17:40;15.70;99.40
33811;DHT22;20119;48.334;16.206;2023-03-13T14:20:27;15.80;99.30
33811;DHT22;20119;48.334;16.206;2023-03-13T14:22:56;15.80;99.20
33811;DHT22;20119;48.334;16.206;2023-03-13T14:25:26;15.90;99.50
33811;DHT22;20119;48.334;16.206;2023-03-13T14:27:55;16.00;98.80
33811;DHT22;20119;48.334;16.206;2023-03-13T14:30:23;16.10;98.40
33811;DHT22;20119;48.334;16.206;2023-03-13T14:32:51;15.90;98.60
33811;DHT22;20119;48.334;16.206;2023-03-13T14:35:20;15.90;99.10
33811;DHT22;20119;48.334;16.206;2023-03-13T14:37:50;16.10;98.60
33811;DHT22;20119;48.334;16.206;2023-03-13T14:40:28;16.00;98.80
33811;DHT22;20119;48.334;16.206;2023-03-13T14:42:57;15.90;98.70
33811;DHT22;20119;48.334;16.206;2023-03-13T14:45:27;16.10;98.50
33811;DHT22;20119;48.334;16.206;2023-03-13T14:48:00;16.20;98.70
33811;DHT22;20119;48.334;16.206;2023-03-13T14:50:31;16.20;98.40
33811;DHT22;20119;48.334;16.206;2023-03-13T14:53:00;16.10;98.60
33811;DHT22;20119;48.334;16.206;2023-03-13T14:55:35;15.90;99.00
33811;DHT22;20119;48.334;16.206;2023-03-13T14:58:24;15.60;99.90
33811;DHT22;20119;48.334;16.206;2023-03-13T15:00:53;15.50;99.90
33811;DHT22;20119;48.334;16.206;2023-03-13T15:03:29;15.60;99.90
33811;DHT22;20119;48.334;16.206;2023-03-13T15:06:15;15.60;99.90
33811;DHT22;20119;48.334;16.206;2023-03-13T15:08:44;15.30;99.90
33811;DHT22;20119;48.334;16.206;2023-03-13T15:11:27;15.20;99.90
33811;DHT22;20119;48.334;16.206;2023-03-13T15:13:55;15.30;99.90
33811;DHT22;20119;48.334;16.206;2023-03-13T15:16:26;15.30;99.90
33811;DHT22;20119;48.334;16.206;2023-03-13T15:18:56;15.20;99.90
33811;DHT22;20119;48.334;16.206;2023-03-13T15:21:26;15.30;99.90
33811;DHT22;20119;48.334;16.206;2023-03-13T15:23:57;15.30;99.90
33811;DHT22;20119;48.334;16.206;2023-03-13T15:26:27;15.40;99.90
33811;DHT22;20119;48.334;16.206;2023-03-13T15:28:56;15.20;99.90
33811;DHT22;20119;48.334;16.206;2023-03-13T15:31:26;15.00;99.90
33811;DHT22;20119;48.334;16.206;2023-03-13T15:33:55;15.00;99.90
33811;DHT22;20119;48.334;16.206;2023-03-13T15:36:26;14.90;99.90
33811;DHT22;20119;48.334;16.206;2023-03-13T15:38:54;15.00;99.90
33811;DHT22;20119;48.334;16.206;2023-03-13T15:41:22;15.20;99.30
33811;DHT22;20119;48.334;16.206;2023-03-13T15:43:52;15.30;99.70
33811;DHT22;20119;48.334;16.206;2023-03-13T15:46:29;15.30;99.20
33811;DHT22;20119;48.334;16.206;2023-03-13T15:48:56;15.30;98.60
33811;DHT22;20119;48.334;16.206;2023-03-13T15:51:24;15.40;98.90
33811;DHT22;20119;48.334;16.206;2023-03-13T15:53:52;15.40;98.60
33811;DHT22;20119;48.334;16.206;2023-03-13T15:56:21;15.30;98.80